YJR
YJRResultsBanner
YJR

Chief Wetona Challenge Trail Run

Overall Finish List

May 15, 2016



7 Miler - Chielf Wetona

13.1 Miler - Chief Wetona

Place Name City Bib No Age Gender Age Group Total Time Pace
1 NATHAN BONHAM WESTFIELD PA 11 19 M 1 Top Fin 1:38:29.59 7:31/M
2 ADAM RUSSELL ROME PA 120 37 M 1 30-39 1:52:18.47 8:34/M
3 MICHAEL HASTINGS LOCK HAVEN PA 58 31 M 2 30-39 1:52:39.67 8:36/M
4 KOLTIN HAMMER ERIE PA 56 20 M 1 20-29 1:53:29.43 8:40/M
5 DENNIS YONKIN LEWISBURG PA 166 52 M 1 Top Fin 1:56:13.66 8:52/M
6 JUSTIN BEATTY WILLIAMSPORT PA 7 37 M 3 30-39 2:02:44.86 9:22/M
7 JOSHUA GAVITT 183 41 M 1 40-49 2:02:55.95 9:23/M
8 JIM WENGER BEAVERTOWN PA 159 46 M 2 40-49 2:05:04.71 9:33/M
9 TONY KORCH NANTICOKE PA 76 56 M 1 50-59 2:06:32.97 9:40/M
10 BRETT SHELTON CORNING NY 132 44 M 3 40-49 2:07:51.67 9:46/M
11 CAROLE DUDUKOVICH PORT MATILDA PA 31 49 F 1 Top Fin 2:08:23.95 9:48/M
12 STEVE TEMPLIN MUNCY PA 144 43 M 4 40-49 2:10:08.95 9:56/M
13 KALE WEIDER 171 16 M 1 16-19 2:11:24.39 10:02/M
14 RANDY LYBACK DUPONT PA 88 47 M 5 40-49 2:11:39.17 10:03/M
15 JESSICA ZOZOS MILL HALL PA 169 26 F 1 20-29 2:13:10.23 10:10/M
16 MICHAEL DINSMORE HUNTINGDON PA 30 33 M 4 30-39 2:14:17.48 10:15/M
17 CHEYENNE ALBERT MORRISDALE PA 1 26 F 2 20-29 2:16:40.49 10:26/M
18 MERRILL SHOWERS NEW COLUMBIA PA 133 54 M 2 50-59 2:18:24.21 10:34/M
19 SEAN MACMILLEN MILL HALL PA 4 42 M 6 40-49 2:18:31.74 10:34/M
20 MIKE DELORSO MIFFLINBURG PA 28 31 M 5 30-39 2:20:49.64 10:45/M
21 LORI KINGSLEY WYSOX PA 73 50 F 1 Top Fin 2:21:09.94 10:46/M
22 JODY DEWALD MILLVILLE PA 29 47 M 7 40-49 2:21:25.60 10:48/M
23 JOE DRUMSTA 178 47 M 8 40-49 2:22:31.25 10:53/M
24 SHAWN BROWN 177 40 M 9 40-49 2:23:10.37 10:56/M
25 KELLY KENNEDY LEMONT PA 72 43 M 10 40-49 2:24:13.26 11:01/M
26 ANDY BELL YORK HAVEN PA 8 42 M 11 40-49 2:24:39.71 11:03/M
27 JOEL STROUSE LOGANTON PA 141 46 M 12 40-49 2:24:43.74 11:03/M
28 GREGG SAUNDERS WILLIAMSPORT PA 122 34 M 6 30-39 2:25:23.26 11:06/M
29 JOHANNA OHM STATE COLLEGE PA 105 24 F 3 20-29 2:25:41.49 11:07/M
30 CRAIG FLEMING STATE COLLEGE PA 37 44 M 13 40-49 2:25:52.66 11:08/M
31 JEFFREY LOVELL WILLIAMSPORT PA 86 52 M 3 50-59 2:26:27.99 11:11/M
32 JULIE PENTICO WILLIAMSPORT PA 107 48 F 1 40-49 2:27:13.27 11:14/M
33 REED WILLAR MILL HALL PA 162 18 M 2 16-19 2:27:37.91 11:16/M
34 JOHN TOSCANO SAYRE PA 147 42 M 14 40-49 2:28:30.50 11:20/M
35 GRANT COLE WELLSBORO PA 22 28 M 2 20-29 2:28:56.49 11:22/M
36 GARY LAMPMAN RIDGWAY PA 81 51 M 4 50-59 2:29:11.27 11:23/M
37 BROCK RIDER SPRING MILLS PA 116 38 M 7 30-39 2:31:15.73 11:33/M
38 JEFF LYNN SLIPPERY ROCK PA 89 48 M 15 40-49 2:32:07.93 11:37/M
39 SCOTT SHEEDER STATE COLLEGE PA 131 41 M 16 40-49 2:32:45.45 11:40/M
40 LOUIS LEVESQUE OWEGO NY 84 15 M 1 1-15 2:32:56.28 11:40/M
41 AARON STEHMAN LOCK HAVEN PA 139 34 M 8 30-39 2:33:46.98 11:44/M
42 JEFFREY SHANKS TOWANDA PA 128 30 M 9 30-39 2:34:02.28 11:45/M
43 CHRISTOPHER COON TOWANDA PA 23 29 M 3 20-29 2:35:19.54 11:51/M
44 MARK SEKERAK 181 39 M 10 30-39 2:35:52.46 11:54/M
45 JEFFERY LISTER JERSEY SHORE PA 85 63 M 1 60-69 2:37:01.47 11:59/M
46 JENNIFER FLEMING STATE COLLEGE PA 38 41 F 2 40-49 2:37:02.68 11:59/M
47 SHAWN MASTRANTONIO ATHENS PA 91 46 M 17 40-49 2:37:15.88 12:00/M
48 DAN KOSSACK NEW WILMINGTON PA 77 53 M 5 50-59 2:37:40.81 12:02/M
49 JOSHUA HADEN HAZLETON PA 55 35 M 11 30-39 2:37:54.18 12:03/M
50 BRIAN HEMAK JERMYN PA 61 43 M 18 40-49 2:38:36.51 12:06/M
51 JENNIFER MORELLI RIDGWAY PA 98 48 F 3 40-49 2:39:42.24 12:11/M
52 LUCAS NICHOLS 179 18 M 3 16-19 2:39:42.52 12:11/M
53 WILLIAM SCHLORFF LOCK HAVEN PA 123 52 M 6 50-59 2:39:57.90 12:13/M
54 MICHELE BROWN TUNKHANNOCK PA 16 45 F 4 40-49 2:40:02.30 12:13/M
55 BRIAN HOFFMAN BERWICK PA 66 35 M 12 30-39 2:41:04.80 12:18/M
56 ROB GOLDER BLOOMSBURG PA 46 49 M 19 40-49 2:41:18.72 12:19/M
57 TRACY WRIGHT WAVERLY NY 165 41 F 5 40-49 2:42:28.45 12:24/M
58 JODY WEIDNER GILLETT PA 158 51 M 7 50-59 2:42:49.79 12:26/M
59 DOUGLAS LANTZ MONROETON PA 83 45 M 20 40-49 2:44:48.50 12:35/M
60 BRIAN KUNKLE SAYRE PA 79 34 M 13 30-39 2:44:57.43 12:35/M
61 KAITLYN BOWER CALIFON NJ 12 27 F 4 20-29 2:45:43.77 12:39/M
62 CODY SMITH JERSEY SHORE PA 138 29 M 4 20-29 2:45:51.70 12:40/M
63 RICHARD FILLMAN JERSEY SHORE PA 35 63 M 2 60-69 2:47:11.57 12:46/M
64 BRANDON ROSETTIE HORSEHEADS NY 118 40 M 21 40-49 2:48:31.32 12:52/M
65 HEIDI HEMAK JERMYN PA 62 43 F 6 40-49 2:48:54.57 12:54/M
66 JIM ARNOLD MONTOURSVILLE PA 3 55 M 8 50-59 2:49:02.32 12:54/M
67 VALERY WEAVER WELLSBORO PA 157 30 F 1 30-39 2:49:36.51 12:57/M
68 MATTHEW GORSLINE ATHENS PA 49 12 M 2 1-15 2:49:52.24 12:58/M
69 SUE REESE 182 56 F 1 50-59 2:50:01.73 12:59/M
70 ERIN GOCEK WILLIAMSPORT PA 45 35 F 2 30-39 2:50:05.80 12:59/M
71 DANIELLE BARNEY LOCK HAVEN PA 6 41 F 7 40-49 2:50:24.28 13:00/M
72 KIMARIE GORSLINE ATHENS PA 48 38 F 3 30-39 2:50:43.58 13:02/M
73 JENNIFER KLINE BLOOMSBURG PA 74 31 F 4 30-39 2:51:37.78 13:06/M
74 DALE SELLI MOUNTAINTOP PA 125 55 M 9 50-59 2:51:45.67 13:07/M
75 MELISSA WALTER BEAVERTOWN PA 155 48 F 8 40-49 2:52:35.51 13:10/M
76 STEPHANIE LOVELL COGAN STATION PA 87 44 F 9 40-49 2:52:36.62 13:11/M
77 BRITTANY FOLK BEAVER SPRINGS PA 39 30 F 5 30-39 2:52:56.29 13:12/M
78 BRIAN BROWN LEWISBURG PA 15 41 M 22 40-49 2:52:59.83 13:12/M
79 TERESA BARNES WILLIAMSPORT PA 5 44 F 10 40-49 2:53:37.33 13:15/M
80 GARTH MITCHELL MARION NY 97 52 M 10 50-59 2:53:39.56 13:15/M
81 MATTHEW GEER COLUMBIA CROSS ROADS PA 41 38 M 14 30-39 2:53:50.74 13:16/M
82 MICHAEL RANCK DEER LAKE PA 113 65 M 3 60-69 2:54:07.77 13:17/M
83 LYNN HINMAN 174 37 F 6 30-39 2:55:14.14 13:23/M
84 AIMEE KEMICK RIDGWAY PA 70 52 F 2 50-59 2:55:55.34 13:26/M
85 ELENA DAISELY COUDERSPORT PA 27 41 F 11 40-49 2:56:06.49 13:27/M
86 TOM HOWE LITITZ PA 68 50 M 11 50-59 2:56:13.55 13:27/M
87 ELLEN PRESS PITTSBURGH PA 110 28 F 5 20-29 2:57:56.84 13:35/M
88 NICK NOLL LOCK HAVEN PA 103 17 M 4 16-19 2:58:53.29 13:39/M
89 MARTHA BRALKOWSKI RIDGWAY PA 14 31 F 7 30-39 2:59:15.45 13:41/M
90 ANDREW HELMS 186 32 M 15 30-39 3:00:02.32 13:45/M
91 JOHN SHAFFER JERSEY SHORE PA 127 45 M 23 40-49 3:00:02.84 13:45/M
92 MATT CROYLE HILLIARD OH 24 40 M 24 40-49 3:01:39.10 13:52/M
93 EDUARDO SILVA MOUNTAINTOP PA 135 31 M 16 30-39 3:03:12.71 13:59/M
94 KAREN MILLER PORT MATILDA PA 95 51 F 3 50-59 3:03:26.27 14:00/M
95 JOHN SHANKS 170 29 M 5 20-29 3:04:09.36 14:03/M
96 JENNIFER HELMAN REYNOLDSVILLE PA 60 34 F 8 30-39 3:04:19.33 14:04/M
97 MISTY TROWBRIDGE LOCK HAVEN PA 149 35 F 9 30-39 3:05:19.86 14:09/M
98 JANES TERRIBILINI WAVERLY NY 145 32 M 17 30-39 3:05:22.12 14:09/M
99 BRIAN POTTER TOWANDA PA 108 52 M 12 50-59 3:05:26.61 14:09/M
100 SHELLEY MUTH DUBOIS PA 102 42 F 12 40-49 3:05:32.94 14:10/M
 
Place Name City Bib No Age Gender Age Group Total Time Pace
101 MATT ZERBY LOCK HAVEN PA 168 28 M 6 20-29 3:07:20.98 14:18/M
102 ELIZABETH SHAFFER JERSEY SHORE PA 126 13 F 1 1-15 3:07:36.33 14:19/M
103 ROBERT VANDERPOOL 176 44 M 25 40-49 3:08:46.56 14:25/M
104 SAMANTHA WEAVER JERSEY SHORE PA 156 43 F 13 40-49 3:09:24.34 14:27/M
105 ANDREA BRACKBILL WILLIAMSPORT PA 13 23 F 6 20-29 3:10:57.37 14:35/M
106 ASHLYN WERT MC ELHATTAN PA 160 16 F 1 16-19 3:12:28.86 14:42/M
107 MIKE MEAGHER ELMIRA NY 94 54 M 13 50-59 3:13:58.13 14:48/M
108 STEPHEN CHERVENYAK WILLIAMSPORT PA 21 31 M 18 30-39 3:16:01.33 14:58/M
109 KEVIN HARRIS LEBANON PA 57 29 M 7 20-29 3:16:07.38 14:58/M
110 ZEB DUNN 175 29 M 8 20-29 3:16:17.78 14:59/M
111 BRIAN FISCHER WYALUSING PA 36 32 M 19 30-39 3:16:37.39 15:01/M
112 MARIA SCHREIBER WAVERLY NY 124 27 F 7 20-29 3:17:58.68 15:07/M
113 TRACY GOLDER BLOOMSBURG PA 47 45 F 14 40-49 3:18:58.33 15:11/M
114 CHRISTOPHER PRESS ATLANTA GA 109 63 M 4 60-69 3:19:33.39 15:14/M
115 ALAN BURGESS WAVERLY NY 18 35 M 20 30-39 3:19:55.83 15:16/M
116 KAREN SHARPSTEEN WAVERLY NY 129 42 F 15 40-49 3:19:58.14 15:16/M
117 ERIN ANDREWS COUDERSPORT PA 2 38 F 10 30-39 3:22:37.40 15:28/M
118 DOUGLAS CARVELL HARRISBURG PA 20 51 M 14 50-59 3:22:47.32 15:29/M
119 PAT FOURNEY 184 45 M 26 40-49 3:23:23.49 15:32/M
120 JULIE LANG RIDGWAY PA 82 39 F 11 30-39 3:27:16.66 15:49/M
121 STEPHANIE MORROW HARRISBURG PA 100 43 F 16 40-49 3:28:33.41 15:55/M
122 JASON HENRY SAYRE PA 63 37 M 21 30-39 3:29:48.10 16:01/M
123 JANE MUNN ATHENS PA 101 48 F 17 40-49 3:30:27.45 16:04/M
124 PAUL NOLL LOCK HAVEN PA 104 43 M 27 40-49 3:31:46.17 16:10/M
125 ADELL WILLIAMS CANTON PA 163 37 F 12 30-39 3:33:20.13 16:17/M
126 JANICE GRAY LOCK HAVEN PA 50 53 F 4 50-59 3:33:29.92 16:18/M
127 ANDY COSENTINE 185 45 M 28 40-49 3:35:24.18 16:27/M
128 CARLI MCCONNELL WATERVILLE PA 93 12 F 2 1-15 3:36:36.43 16:32/M
129 BILL MCCONNELL WATERVILLE PA 92 40 M 29 40-49 3:36:37.54 16:32/M
130 GINA WERT MC ELHATTAN PA 161 50 F 5 50-59 3:37:27.86 16:36/M
131 REBECCA RUSCZYK SOUTH WILLIAMSPORT PA 119 29 F 8 20-29 3:38:53.66 16:43/M
132 RENEE SHAY SAYRE PA 130 44 F 18 40-49 3:39:27.81 16:45/M
133 KIMBERLY MASTRANTONIO ATHENS PA 90 43 F 19 40-49 3:39:27.81 16:45/M
134 JON PEARSON 173 38 M 22 30-39 3:39:59.53 16:48/M
135 TRACY HORNING 172 43 F 20 40-49 3:39:59.54 16:48/M
136 WENDY RESHETAR DRUMS PA 115 41 F 21 40-49 3:41:55.24 16:56/M
137 CARRIE VANWHY COUDERSPORT PA 152 40 F 22 40-49 3:45:45.95 17:14/M
138 DAWN STIFFLER JERSEY SHORE PA 140 39 F 13 30-39 3:48:11.46 17:25/M
139 LEIGH TRASCO ULSTER PA 148 48 F 23 40-49 3:51:17.92 17:39/M
140 JANE KONE HOWARD PA 75 62 F 1 60-69 3:54:12.19 17:53/M
141 WAYNE LAMONT CANTON PA 80 50 M 15 50-59 4:03:46.94 18:36/M
142 REBECCA TERRY CANTON PA 146 22 F 9 20-29 4:03:46.94 18:36/M
143 LAUREN GUSTIN GILLETT PA 54 24 F 10 20-29 4:03:46.99 18:36/M
144 ALLAN GILBERT ATHENS PA 42 54 M 16 50-59 4:05:54.43 18:46/M
145 DEBRA MORIN MUNCY PA 99 58 F 6 50-59 4:07:13.39 18:52/M
146 BRIAN DUNN MONROETON PA 32 56 M 17 50-59 4:08:17.49 18:57/M
147 CHARLENE MCSPARRON SAYRE PA 258 41 F 24 40-49 4:09:28.51 19:03/M
148 COREY GSTALDER MONTOURSVILLE PA 52 25 F 11 20-29 4:09:56.29 19:05/M
149 PETE GSTALDER MONTOURSVILLE PA 53 62 M 5 60-69 4:10:06.23 19:05/M
150 ERIN KENNEDY LOCK HAVEN PA 71 39 F 14 30-39 4:10:50.51 19:09/M
151 DENNIS WOLFE WILLIAMSPORT PA 164 64 M 6 60-69 4:12:04.39 19:15/M
152 SANDRA GIPE STEWARTSTOWN PA 44 54 F 7 50-59 4:14:20.75 19:25/M
153 RICK CRUZ ULSTER PA 25 54 M 18 50-59 4:16:39.11 19:35/M
154 HOWARD CUSHMAN PAINTED POST NY 26 48 M 30 40-49 4:17:05.29 19:37/M
155 RUTH PRIESTER WILLIAMSPORT PA 111 47 F 25 40-49 4:18:53.83 19:46/M
156 CARL UNDERCOFLER WOODLAND PA 150 78 M 1 70-99 4:18:54.24 19:46/M
157 MICHELE HOBBS SAYRE PA 65 46 F 26 40-49 4:23:02.99 20:05/M
158 RUSSELL WAGNER HARRISBURG PA 154 64 M 7 60-69 4:24:30.66 20:11/M
159 DONNA WAGNER HARRISBURG PA 153 48 F 27 40-49 4:24:31.44 20:12/M
160 MELISSA JACKSON JERSEY SHORE PA 69 35 F 15 30-39 4:27:29.55 20:25/M
161 ROBERT GIPE STEWARTSTOWN PA 43 52 M 19 50-59 4:31:44.81 20:45/M
162 RYAN SMITH LE RAYSVILLE PA 281 31 M 23 30-39 4:32:41.67 20:49/M
163 MISTY JO BLOWERS MONROETON PA 10 39 F 16 30-39 4:34:40.96 20:58/M
164 MARY FRISBIE WAVERLY NY 40 48 F 28 40-49 4:43:56.59 21:40/M
165 C EDWARD MITCHELL MONTOURSVILLE PA 96 72 M 2 70-99 4:49:01.62 22:04/M
166 BECKY PROCTOR MILL HALL PA 112 46 F 29 40-49 5:19:40.35 24:24/M
Top  

7 Miler - Chielf Wetona

Place Name City Bib No Age Gender Age Group Total Time Pace
1 COLLIN WRIGHT WAVERLY NY 498 13 M 1 Top Fin 58:13.50 8:19/M
2 MIKE RANDALL TOWANDA PA 268 47 M 1 Top Fin 58:26.22 8:21/M
3 LUKE AUER NEW ALBANY PA 211 16 M 1 16-19 59:24.69 8:29/M
4 NATHANIEL JOHNSON MAINESBURG PA 245 14 M 1 1-15 59:31.44 8:30/M
5 CAMERON SERAFINI DUSHORE PA 277 22 M 1 20-29 59:51.83 8:33/M
6 JOSHUA MCCLELLAND SAYRE PA 256 14 M 2 1-15 1:02:33.96 8:56/M
7 JOE QUATRINI ATHENS PA 266 39 M 1 30-39 1:03:02.96 9:00/M
8 BILL MOSIER TOWANDA PA 261 55 M 1 50-59 1:03:35.70 9:05/M
9 AMY KRATZER BEAVERTOWN PA 251 36 F 1 Top Fin 1:04:00.20 9:09/M
10 RON LOZOWSKI 291 46 M 1 40-49 1:04:32.21 9:13/M
11 JASON JOHNSON MAINESBURG PA 244 43 M 2 40-49 1:04:38.71 9:14/M
12 CHRIS ROSSITER SAYRE PA 270 31 M 2 30-39 1:08:28.21 9:47/M
13 ADAM BRENNAN TROUT RUN PA 221 35 M 3 30-39 1:08:50.20 9:50/M
14 CALEB MCCLELLAND SAYRE PA 254 16 M 2 16-19 1:09:51.85 9:59/M
15 BEN RUBERT 273 0 M 1 0- 0 1:10:20.49 10:03/M
16 THE BEARD WYALUSING PA 215 35 M 4 30-39 1:10:54.97 10:08/M
17 JOEL HUNT SAYRE PA 243 38 M 5 30-39 1:11:39.22 10:14/M
18 TINA REMSNYDER HUGHESVILLE PA 269 39 F 1 30-39 1:12:29.60 10:21/M
19 ELIZABETH MOORES MONTOURSVILLE PA 260 38 F 2 30-39 1:12:30.21 10:21/M
20 SHELLEY HEASLEY 284 53 F 1 Top Fin 1:13:05.36 10:26/M
21 AMANDA RUBERT TOWANDA PA 272 49 F 1 40-49 1:14:27.35 10:38/M
22 VICTORIA JOHNSON MAINESBURG PA 246 17 F 1 16-19 1:15:08.75 10:44/M
23 JESSICA FLYNN SAYRE PA 231 36 F 3 30-39 1:15:57.79 10:51/M
24 JOHN AUBERZINSKY ATGLEN PA 210 46 M 3 40-49 1:18:45.38 11:15/M
25 DAVE DECKER GILLETT PA 227 57 M 2 50-59 1:18:53.50 11:16/M
26 CHANTEL BOUCHARD LYKENSLYKENS PA 218 42 F 2 40-49 1:19:02.63 11:17/M
27 SONNY TERRY MONROETON PA 443 52 M 3 50-59 1:20:48.42 11:33/M
28 KEVIN RUBERT TOWANDA PA 274 56 M 4 50-59 1:20:50.66 11:33/M
29 LEEANN LEVESQUE OWEGO NY 252 52 F 1 50-59 1:22:18.39 11:45/M
30 RANDY BENNETT ATHENS PA 216 59 M 5 50-59 1:22:20.21 11:46/M
31 STEVE PAGE BINGHAMTON NY 263 65 M 1 60-69 1:23:43.45 11:58/M
32 CLIFFORD GEER COLUMBIA CROSS ROADS PA 233 68 M 2 60-69 1:24:04.26 12:01/M
33 MICHELE QUATRINI ATHENS PA 267 40 F 3 40-49 1:24:55.16 12:08/M
34 PATRICIA CAMPBELL WILMINGTON DE 223 50 F 2 50-59 1:25:03.63 12:09/M
35 JENN MCCONNELL WATERVILLE PA 257 40 F 4 40-49 1:25:06.76 12:09/M
36 TONY DRIEBELBIES FREDERICK MD 228 50 M 6 50-59 1:26:09.72 12:18/M
37 ROBERT BAGULEY LOCK HAVEN PA 213 61 M 3 60-69 1:26:22.73 12:20/M
38 CHELSEA PURCELL MIFFLINBURG PA 265 25 F 1 20-29 1:26:23.27 12:20/M
39 TIA STEINFELT ATHENS PA 428 38 F 4 30-39 1:26:24.95 12:21/M
40 HEATHER MOODY TROY PA 259 42 F 5 40-49 1:26:58.27 12:25/M
41 JESSY SCHWENK WAVERLY NY 276 29 F 2 20-29 1:27:10.90 12:27/M
42 VALERIE DUFF WELLSBORO PA 229 42 F 6 40-49 1:27:53.12 12:33/M
43 JEFF RUSSELL SAYRE PA 275 53 M 7 50-59 1:28:26.40 12:38/M
44 ANNE HICKS HANOVER MD 241 47 F 7 40-49 1:28:31.27 12:39/M
45 ROBERT STACKHOUSE 293 51 M 8 50-59 1:28:32.50 12:39/M
46 LAURA BRENNAN TROUT RUN PA 222 33 F 5 30-39 1:29:28.26 12:47/M
47 DAVE LUCKNER 292 59 M 9 50-59 1:30:13.42 12:53/M
48 KEVIN BAHR PINE CITY NY 214 52 M 10 50-59 1:30:38.60 12:57/M
49 BARBARA WYWIORSKI TOWANDA PA 499 56 F 3 50-59 1:30:54.42 12:59/M
50 TRAVIS KLINE BLOOMSBURG PA 249 14 M 3 1-15 1:31:28.31 13:04/M
51 MELANIE BLASZ MONROETON PA 217 35 F 6 30-39 1:31:54.70 13:08/M
52 MICHAEL HAFFLEY LOCK HAVEN PA 236 48 M 4 40-49 1:32:59.86 13:17/M
53 ROBERT KERN BEAVER DAMS NY 247 72 M 1 70-99 1:33:03.28 13:18/M
54 JUDY BAGULEY LOCK HAVEN PA 212 52 F 4 50-59 1:33:10.20 13:19/M
55 LAURIE WILSON WELLSBORO PA 475 53 F 5 50-59 1:34:31.28 13:30/M
56 ALESSANDRA HICKEY ATHENS PA 240 31 F 7 30-39 1:34:43.20 13:32/M
57 BRANDI CUMMINGS TIOGA PA 225 35 F 8 30-39 1:34:46.45 13:32/M
58 BARRYN VAN DER PUTTEN JERSEY SHORE PA 456 9 M 4 1-15 1:36:51.95 13:50/M
59 DAVID SLUSSER JR. MILLERTON PA 137 40 M 5 40-49 1:38:08.27 14:01/M
60 CHARLIZE SLUSSER MILLERTON PA 279 12 F 1 1-15 1:38:08.27 14:01/M
61 MARLEY RECOSEA 290 63 F 1 60-69 1:38:16.21 14:02/M
62 ALLEN HENDERSON 285 53 M 11 50-59 1:39:40.90 14:14/M
63 KAITLIN WANDELL SAYRE PA 465 19 F 2 16-19 1:39:44.53 14:15/M
64 MICHELLE SHEDDEN CANTON PA 278 54 F 6 50-59 1:41:51.68 14:33/M
65 SARAH TICE CANTON PA 450 30 F 9 30-39 1:41:51.68 14:33/M
66 COLLEEN CHILSON SAYRE PA 224 38 F 10 30-39 1:45:27.81 15:04/M
67 NICHOLE ALBERS NEW ALBANY PA 207 24 F 3 20-29 1:45:29.14 15:04/M
68 KENNEDY SNOOK JERSEY SHORE PA 282 12 F 2 1-15 1:46:04.69 15:09/M
69 LYNETTE BOWER WILLIAMSPORT PA 220 55 F 7 50-59 1:46:39.79 15:14/M
70 RYANN SLUSSER MILLERTON PA 280 10 F 3 1-15 1:53:44.12 16:15/M
71 KIMBERLY SLUSSER MILLERTON PA 136 39 F 11 30-39 1:53:47.54 16:15/M
72 DAN LUCHACO SAYRE PA 253 66 M 4 60-69 1:54:07.89 16:18/M
73 ALEXANDRIA GSTALDER MONTOURSVILLE PA 234 27 F 4 20-29 1:55:56.76 16:34/M
74 BRAEDAN KLINE BLOOMSBURG PA 248 11 M 5 1-15 1:56:28.92 16:38/M
75 KIMBERLY HAZLETT WELLSBORO PA 238 39 F 12 30-39 1:56:56.94 16:42/M
76 STEPHEN HAZLETT WELLSBORO PA 239 37 M 6 30-39 1:56:57.34 16:42/M
77 PHILIP SNOOK JERSEY SHORE PA 410 40 M 6 40-49 1:59:02.58 17:00/M
78 STACY CURRY JERSEY SHORE PA 226 37 F 13 30-39 1:59:09.84 17:01/M
79 DOUG BOWER WILLIAMSPORT PA 219 56 M 12 50-59 2:05:35.81 17:56/M
80 KEITH RINKER 289 45 M 7 40-49 2:12:01.46 18:52/M
81 CATHY RINKER 288 42 F 8 40-49 2:12:01.57 18:52/M
82 ALY LEWIS 286 32 F 14 30-39 2:16:11.64 19:27/M
83 LAURI YOUNG TROY PA 500 50 F 8 50-59 2:17:54.17 19:42/M
84 KATHY YOUNG LOCK HAVEN PA 167 45 F 9 40-49 2:41:00.37 23:00/M
85 PATRICIA DUNN MONROETON PA 230 55 F 9 50-59 2:49:48.26 24:15/M
86 KAYLA SAXON 287 27 F 5 20-29 2:49:50.69 24:16/M